Time;durP1;ratioP1;P1;durP2;ratioP2;P2;SDS_P1;SDS_P2;PMS_P1;PMS_P2;Temp;Humidity;BMP_temperature;BMP_pressure;BME280_temperature;BME280_humidity;BME280_pressure;Samples;Min_cycle;Max_cycle;Signal;HPM_P1;HPM_P2
2021/11/12 00:12:39;;;;;;;125.65;31.65;;;;;;;-0.06;100.00;97126.53;4961611;28;20523;-60
2021/11/12 00:15:05;;;;;;;71.03;31.13;;;;;;;-0.09;100.00;97129.00;4977370;28;20046;-60
2021/11/12 00:17:33;;;;;;;68.25;32.67;;;;;;;-0.08;100.00;97127.91;4982639;28;20046;-59
2021/11/12 00:20:00;;;;;;;69.07;32.63;;;;;;;-0.10;100.00;97122.03;4983397;28;20042;-60
2021/11/12 00:22:27;;;;;;;78.20;33.78;;;;;;;-0.12;100.00;97133.06;4977271;28;20505;-61
2021/11/12 00:24:56;;;;;;;93.50;34.08;;;;;;;-0.18;100.00;97128.84;4980556;28;20054;-60
2021/11/12 00:27:24;;;;;;;96.00;34.97;;;;;;;-0.17;100.00;97129.66;4976811;28;20055;-58
2021/11/12 00:32:24;;;;;;;71.90;33.50;;;;;;;-0.13;100.00;97131.47;4975529;28;20042;-60
2021/11/12 00:35:03;;;;;;;75.38;34.45;;;;;;;-0.03;100.00;97125.19;4979861;28;20035;-60
2021/11/12 00:37:51;;;;;;;74.60;34.30;;;;;;;-0.07;100.00;97132.22;4977312;28;20054;-58
2021/11/12 00:45:32;;;;;;;80.65;34.25;;;;;;;-0.07;100.00;97108.78;4957608;28;20050;-58
2021/11/12 00:55:29;;;;;;;76.32;34.95;;;;;;;0.00;100.00;97103.06;4974194;28;20042;-59
2021/11/12 00:57:57;;;;;;;68.70;34.70;;;;;;;0.09;100.00;97098.63;4981209;28;20042;-57
2021/11/12 01:00:23;;;;;;;89.05;33.42;;;;;;;0.15;100.00;97102.06;4973372;28;21072;-57
2021/11/12 01:02:49;;;;;;;74.53;32.40;;;;;;;0.30;100.00;97107.22;4981295;28;20490;-58
2021/11/12 01:05:15;;;;;;;95.95;34.72;;;;;;;0.24;100.00;97108.41;4976272;28;20070;-58
2021/11/12 01:07:41;;;;;;;82.57;34.00;;;;;;;0.28;100.00;97105.94;4981421;28;20070;-59
2021/11/12 01:10:09;;;;;;;91.45;33.25;;;;;;;0.28;100.00;97103.25;4974390;28;20066;-58
2021/11/12 01:12:37;;;;;;;80.82;35.75;;;;;;;0.25;100.00;97099.22;4980535;28;20135;-59
2021/11/12 01:15:08;;;;;;;107.00;36.03;;;;;;;0.27;100.00;97107.84;4977276;28;20042;-60
2021/11/12 01:17:34;;;;;;;110.85;36.88;;;;;;;0.32;100.00;97105.06;4981151;28;20854;-59
2021/11/12 01:20:02;;;;;;;137.55;37.10;;;;;;;0.36;100.00;97107.97;4981288;28;20050;-60
2021/11/12 01:22:28;;;;;;;118.47;37.88;;;;;;;0.40;100.00;97100.94;4976120;28;20120;-57
2021/11/12 01:24:53;;;;;;;174.05;39.50;;;;;;;0.44;100.00;97101.16;4980585;28;20054;-59
2021/11/12 01:27:19;;;;;;;187.88;40.85;;;;;;;0.43;100.00;97111.09;4976254;28;20042;-59
2021/11/12 01:29:44;;;;;;;142.05;39.92;;;;;;;0.47;100.00;97114.84;4981069;28;20046;-57
2021/11/12 01:32:19;;;;;;;183.05;39.70;;;;;;;0.47;100.00;97105.94;4976014;28;20049;-59
2021/11/12 01:34:50;;;;;;;190.25;43.60;;;;;;;0.44;100.00;97098.44;4981322;28;20042;-60
2021/11/12 01:37:19;;;;;;;243.55;44.53;;;;;;;0.48;100.00;97094.06;4976500;28;20506;-56
2021/11/12 01:39:50;;;;;;;193.57;42.92;;;;;;;0.54;100.00;97087.50;4981377;28;20354;-59
2021/11/12 01:42:17;;;;;;;186.82;44.15;;;;;;;0.57;100.00;97098.50;4975410;28;20507;-59
2021/11/12 01:44:47;;;;;;;231.63;45.67;;;;;;;0.53;100.00;97086.72;4979857;28;20051;-59
2021/11/12 01:47:19;;;;;;;227.77;45.00;;;;;;;0.51;100.00;97085.41;4976683;28;20045;-60
2021/11/12 01:52:37;;;;;;;257.20;51.70;;;;;;;0.56;100.00;97085.34;4975929;28;20046;-59
2021/11/12 01:55:02;;;;;;;320.70;46.95;;;;;;;0.54;100.00;97074.03;4981041;28;20038;-59
2021/11/12 01:59:54;;;;;;;180.52;41.40;;;;;;;0.49;100.00;97063.34;4995537;28;20053;-56
2021/11/12 02:02:20;;;;;;;121.38;40.63;;;;;;;0.54;100.00;97065.94;4976980;28;20050;-59
2021/11/12 02:04:46;;;;;;;106.25;39.60;;;;;;;0.55;100.00;97059.47;4980736;28;20537;-58
2021/11/12 02:07:12;;;;;;;175.88;43.58;;;;;;;0.54;100.00;97058.69;4975012;28;20079;-60
2021/11/12 02:09:38;;;;;;;169.98;41.78;;;;;;;0.51;100.00;97055.75;4978451;28;20100;-59
2021/11/12 02:12:34;;;;;;;130.05;39.78;;;;;;;0.52;100.00;97060.88;4979402;28;20042;-61
2021/11/12 02:14:58;;;;;;;144.43;39.88;;;;;;;0.50;100.00;97041.47;4961639;28;20054;-56
2021/11/12 02:17:30;;;;;;;133.43;39.13;;;;;;;0.49;100.00;97042.56;4957942;28;20054;-58
2021/11/12 02:20:10;;;;;;;199.00;41.35;;;;;;;0.44;100.00;97034.56;4963949;28;20047;-57
2021/11/12 02:22:38;;;;;;;179.70;44.70;;;;;;;0.46;100.00;97036.97;4964797;28;20050;-58
2021/11/12 02:25:20;;;;;;;105.18;37.25;;;;;;;0.53;100.00;97032.81;4968702;28;20123;-61
2021/11/12 02:27:54;;;;;;;188.25;42.97;;;;;;;0.52;100.00;97031.22;4975397;28;20381;-59
2021/11/12 02:30:25;;;;;;;188.43;40.60;;;;;;;0.61;100.00;97034.03;4960011;28;20495;-59
2021/11/12 02:32:59;;;;;;;184.07;41.65;;;;;;;0.61;100.00;97030.53;4965015;28;20073;-56
2021/11/12 02:35:26;;;;;;;125.55;39.25;;;;;;;0.61;100.00;97025.16;4960387;28;20046;-57
2021/11/12 02:37:51;;;;;;;225.70;41.70;;;;;;;0.56;100.00;97026.03;4973433;28;20054;-59
2021/11/12 02:40:17;;;;;;;190.23;42.47;;;;;;;0.52;100.00;97014.22;4968159;28;20049;-59
2021/11/12 02:42:42;;;;;;;205.52;44.80;;;;;;;0.54;100.00;97020.13;4974039;28;20586;-57
2021/11/12 02:45:08;;;;;;;204.65;42.97;;;;;;;0.51;100.00;97012.63;4966364;28;20050;-59
2021/11/12 02:47:34;;;;;;;169.85;43.35;;;;;;;0.56;100.00;97018.75;4965661;28;20051;-57
2021/11/12 02:49:59;;;;;;;184.55;43.28;;;;;;;0.56;100.00;97009.88;4963950;28;20130;-59
2021/11/12 02:52:25;;;;;;;223.50;44.85;;;;;;;0.54;100.00;97004.78;4960200;28;20051;-58
2021/11/12 02:54:52;;;;;;;202.57;44.47;;;;;;;0.59;100.00;97009.25;4961488;28;20489;-57
2021/11/12 02:57:19;;;;;;;248.15;46.33;;;;;;;0.64;100.00;97013.78;4959961;28;20503;-58
2021/11/12 02:59:45;;;;;;;251.07;44.90;;;;;;;0.68;100.00;97015.56;4964531;28;20043;-56
2021/11/12 03:02:10;;;;;;;297.08;47.13;;;;;;;0.61;100.00;97007.06;4959009;28;20046;-59
2021/11/12 03:04:36;;;;;;;240.90;44.45;;;;;;;0.66;100.00;97015.06;4962163;28;20047;-59
2021/11/12 03:07:02;;;;;;;328.63;50.05;;;;;;;0.76;100.00;97016.81;4964737;28;20423;-59
2021/11/12 03:09:29;;;;;;;240.40;43.72;;;;;;;0.62;100.00;97013.28;4961704;28;20109;-59
2021/11/12 03:11:57;;;;;;;241.93;46.28;;;;;;;0.68;100.00;97006.69;4982990;28;20038;-59
2021/11/12 03:14:22;;;;;;;141.75;40.20;;;;;;;0.73;100.00;97006.63;4975366;28;20135;-58
2021/11/12 03:16:49;;;;;;;239.32;45.80;;;;;;;0.73;100.00;97007.41;4983701;28;20133;-56
2021/11/12 03:19:17;;;;;;;208.82;43.70;;;;;;;0.68;100.00;96998.59;4978880;28;20074;-57
2021/11/12 03:21:43;;;;;;;209.15;42.83;;;;;;;0.63;100.00;96996.00;4983152;28;20076;-58
2021/11/12 03:24:18;;;;;;;123.57;38.75;;;;;;;0.66;100.00;96995.41;4978203;28;20053;-55
2021/11/12 03:30:14;;;;;;;181.63;40.40;;;;;;;0.76;100.00;96995.25;4976649;28;20057;-58
2021/11/12 04:02:30;;;;;;;256.90;43.08;;;;;;;0.28;100.00;96993.56;4977992;28;20045;-57
2021/11/12 04:40:55;;;;;;;229.95;44.95;;;;;;;0.43;100.00;96989.84;4978100;28;20042;-62
2021/11/12 05:46:00;;;;;;;278.23;53.33;;;;;;;0.06;100.00;97014.91;4981044;28;20105;-58
2021/11/12 05:51:26;;;;;;;228.25;49.65;;;;;;;0.15;100.00;97013.97;4972901;28;20074;-59
2021/11/12 05:56:37;;;;;;;294.50;50.25;;;;;;;0.21;100.00;97006.59;4985194;28;20096;-56
2021/11/12 05:59:03;;;;;;;298.83;53.00;;;;;;;0.21;100.00;97003.13;4992805;28;20351;-60
2021/11/12 06:01:29;;;;;;;302.08;54.47;;;;;;;0.19;100.00;97000.72;4997537;28;20050;-60
2021/11/12 06:03:55;;;;;;;215.48;51.85;;;;;;;0.23;100.00;96999.03;4986196;28;20138;-58
2021/11/12 06:06:21;;;;;;;326.27;53.08;;;;;;;0.20;100.00;96996.94;4979774;28;20111;-56
2021/11/12 06:08:46;;;;;;;321.90;52.45;;;;;;;0.22;100.00;97002.00;4983405;28;20125;-57
2021/11/12 06:11:12;;;;;;;256.83;52.45;;;;;;;0.19;100.00;96996.13;4979981;28;20049;-57
2021/11/12 06:13:37;;;;;;;294.35;53.40;;;;;;;0.21;100.00;97006.59;4985133;28;20049;-59
2021/11/12 06:16:03;;;;;;;272.73;52.28;;;;;;;0.25;100.00;97001.44;4980945;28;20115;-58
2021/11/12 06:18:28;;;;;;;313.10;53.58;;;;;;;0.36;100.00;96997.50;4983823;28;20128;-58
2021/11/12 06:20:54;;;;;;;301.70;57.38;;;;;;;0.37;100.00;96991.03;4990402;28;20090;-59
2021/11/12 06:23:19;;;;;;;383.38;54.88;;;;;;;0.32;100.00;96994.56;4985262;28;20050;-60
2021/11/12 06:25:45;;;;;;;219.40;51.88;;;;;;;0.44;100.00;96993.34;4983824;28;20097;-59
2021/11/12 06:28:10;;;;;;;160.30;46.92;;;;;;;0.52;100.00;97000.75;4975884;28;20038;-60
2021/11/12 06:30:36;;;;;;;292.25;52.90;;;;;;;0.49;100.00;96991.38;4982947;28;20053;-58
2021/11/12 06:33:02;;;;;;;253.57;48.40;;;;;;;0.46;100.00;96996.53;4988003;28;20125;-61
2021/11/12 06:35:28;;;;;;;336.00;55.35;;;;;;;0.42;100.00;96996.34;4981308;28;20050;-59
2021/11/12 06:37:54;;;;;;;237.55;53.65;;;;;;;0.53;100.00;97002.38;4980451;28;20498;-59
2021/11/12 06:40:20;;;;;;;257.20;51.35;;;;;;;0.48;100.00;97003.22;4980826;28;20042;-60
2021/11/12 06:51:02;;;;;;;274.48;52.17;;;;;;;0.38;100.00;96996.13;4982210;28;20137;-58
2021/11/12 06:53:28;;;;;;;285.58;52.08;;;;;;;0.33;100.00;96995.41;4976033;28;20729;-59
2021/11/12 06:55:56;;;;;;;251.13;52.08;;;;;;;0.31;100.00;96994.91;4983137;28;20058;-58
2021/11/12 06:58:22;;;;;;;375.15;52.22;;;;;;;0.32;100.00;96999.19;4979267;28;20116;-59
2021/11/12 07:00:47;;;;;;;158.23;45.33;;;;;;;0.35;100.00;96995.91;4982130;28;20077;-58
2021/11/12 07:03:12;;;;;;;235.35;48.63;;;;;;;0.35;100.00;96996.69;4967954;28;20066;-60
2021/11/12 07:05:38;;;;;;;273.75;51.97;;;;;;;0.28;100.00;96995.47;4982187;28;20075;-60
2021/11/12 07:08:03;;;;;;;227.52;50.17;;;;;;;0.25;100.00;97001.44;4980039;28;20058;-60
2021/11/12 07:10:29;;;;;;;236.77;50.40;;;;;;;0.15;100.00;97005.88;4980365;28;20101;-57
2021/11/12 07:12:54;;;;;;;259.48;50.78;;;;;;;0.21;100.00;97017.38;4983464;28;20141;-59
2021/11/12 07:15:20;;;;;;;298.25;51.83;;;;;;;0.33;100.00;97014.25;4975356;28;20046;-60
2021/11/12 07:17:48;;;;;;;242.82;48.95;;;;;;;0.33;100.00;97004.28;4982880;28;20487;-59
2021/11/12 07:20:14;;;;;;;287.35;49.92;;;;;;;0.33;100.00;97000.78;4977991;28;20061;-59
2021/11/12 07:22:40;;;;;;;238.13;50.70;;;;;;;0.38;100.00;97000.72;4983017;28;20126;-60
2021/11/12 07:25:06;;;;;;;294.83;52.70;;;;;;;0.32;100.00;96997.28;4959742;28;20483;-58
2021/11/12 07:27:33;;;;;;;357.45;51.33;;;;;;;0.29;100.00;97000.56;4981756;28;20561;-58
2021/11/12 07:29:58;;;;;;;188.57;47.28;;;;;;;0.30;100.00;96999.47;4979816;28;20600;-58
2021/11/12 07:32:24;;;;;;;254.48;48.13;;;;;;;0.35;100.00;97007.47;4978247;28;20090;-59
2021/11/12 07:34:52;;;;;;;187.73;46.97;;;;;;;0.48;100.00;97005.13;4982594;28;20046;-56
2021/11/12 07:37:18;;;;;;;249.88;48.72;;;;;;;0.39;100.00;97005.00;4975771;28;20042;-57
2021/11/12 07:42:19;;;;;;;274.13;49.15;;;;;;;0.45;100.00;96997.63;4970134;28;20042;-59
2021/11/12 07:47:14;;;;;;;202.02;51.47;;;;;;;0.25;100.00;96996.06;4978620;28;20034;-59
2021/11/12 07:49:42;;;;;;;190.60;52.92;;;;;;;0.27;100.00;96988.47;4980960;28;20042;-58
2021/11/12 07:52:08;;;;;;;219.25;56.63;;;;;;;0.33;100.00;96996.19;4984522;28;20038;-57
2021/11/12 07:54:33;;;;;;;192.77;50.03;;;;;;;0.42;100.00;96998.22;4980915;28;20052;-57
2021/11/12 07:57:00;;;;;;;211.13;51.67;;;;;;;0.50;100.00;96998.34;4982035;28;20547;-59
2021/11/12 07:59:27;;;;;;;221.73;51.67;;;;;;;0.55;100.00;96992.09;4976872;28;20457;-59
2021/11/12 08:01:53;;;;;;;199.52;55.63;;;;;;;0.52;100.00;96995.34;4981655;28;20484;-56
2021/11/12 08:04:19;;;;;;;221.90;56.88;;;;;;;0.48;100.00;96997.84;4976782;28;20464;-58
2021/11/12 08:06:46;;;;;;;176.18;49.03;;;;;;;0.48;100.00;96989.75;4979947;28;20057;-55
2021/11/12 08:09:15;;;;;;;252.75;69.82;;;;;;;0.57;100.00;96985.28;4974553;28;20093;-57
2021/11/12 08:14:17;;;;;;;254.35;79.32;;;;;;;0.68;100.00;96982.44;4986165;28;20049;-56
2021/11/12 08:24:30;;;;;;;246.35;57.33;;;;;;;0.73;100.00;96976.97;4970862;28;20058;-60
2021/11/12 08:27:31;;;;;;;183.40;49.97;;;;;;;0.71;100.00;96982.66;4982481;28;20038;-59
2021/11/12 08:42:48;;;;;;;172.00;50.05;;;;;;;0.81;100.00;96975.47;4981321;28;20034;-60
2021/11/12 08:45:27;;;;;;;200.00;54.80;;;;;;;0.72;100.00;96983.44;4974965;28;20057;-60
2021/11/12 08:48:00;;;;;;;170.50;51.83;;;;;;;0.89;100.00;96972.09;4980695;28;20049;-56
2021/11/12 08:50:26;;;;;;;165.95;55.72;;;;;;;0.95;100.00;96966.34;4976127;28;20073;-57
2021/11/12 08:53:02;;;;;;;174.57;58.38;;;;;;;0.91;100.00;96964.50;4980093;28;20408;-55
2021/11/12 08:55:30;;;;;;;202.07;57.63;;;;;;;0.92;100.00;96966.13;4976753;28;20182;-59
2021/11/12 08:57:57;;;;;;;168.93;52.05;;;;;;;0.65;100.00;96953.38;4975500;28;20039;-59
2021/11/12 09:00:23;;;;;;;188.13;52.05;;;;;;;0.84;100.00;96953.31;4974753;28;20049;-59
2021/11/12 09:02:50;;;;;;;193.13;55.63;;;;;;;0.79;100.00;96954.19;4981429;28;20050;-59
2021/11/12 09:05:20;;;;;;;184.40;54.33;;;;;;;0.93;100.00;96952.31;4975820;28;20065;-57
2021/11/12 09:07:47;;;;;;;184.75;54.30;;;;;;;0.92;100.00;96953.44;4992794;28;20049;-58
2021/11/12 09:10:14;;;;;;;174.43;51.40;;;;;;;0.88;100.00;96955.13;4980809;28;20053;-59
2021/11/12 09:12:42;;;;;;;163.15;51.80;;;;;;;0.98;100.00;96956.03;4981109;28;20061;-60
2021/11/12 09:15:21;;;;;;;171.70;51.70;;;;;;;1.04;100.00;96960.22;4974497;28;20132;-60
2021/11/12 09:17:47;;;;;;;184.90;53.53;;;;;;;1.02;100.00;96959.75;4980601;28;20038;-57
2021/11/12 09:20:14;;;;;;;198.32;59.88;;;;;;;1.13;100.00;96944.94;4980786;28;20046;-56
2021/11/12 09:22:40;;;;;;;188.20;56.58;;;;;;;1.34;100.00;96948.06;4984008;28;20073;-60
2021/11/12 09:25:07;;;;;;;196.30;58.38;;;;;;;1.24;100.00;96959.88;5007140;28;20045;-61
2021/11/12 09:27:33;;;;;;;205.38;53.45;;;;;;;1.30;100.00;96957.88;4980832;28;20038;-60
2021/11/12 09:29:59;;;;;;;190.82;58.13;;;;;;;1.33;100.00;96954.53;4981572;28;20053;-59
2021/11/12 09:32:24;;;;;;;205.30;65.03;;;;;;;1.41;100.00;96947.66;4977386;28;20536;-58
2021/11/12 09:34:50;;;;;;;175.38;51.33;;;;;;;1.31;100.00;96954.03;4990590;28;20046;-55
2021/11/12 09:37:21;;;;;;;189.98;52.92;;;;;;;1.28;100.00;96947.38;4980775;28;20042;-59
2021/11/12 09:39:54;;;;;;;214.10;56.15;;;;;;;1.39;100.00;96939.88;4983337;28;20042;-58
2021/11/12 09:42:32;;;;;;;196.30;53.67;;;;;;;1.48;100.00;96946.16;4976920;28;20566;-61
2021/11/12 09:45:04;;;;;;;171.90;50.35;;;;;;;1.49;100.00;96953.13;4981739;28;20056;-55
2021/11/12 09:47:30;;;;;;;155.45;50.22;;;;;;;1.72;100.00;96945.13;4976946;28;20042;-60
2021/11/12 09:49:59;;;;;;;168.35;50.55;;;;;;;1.90;100.00;96944.16;4981626;28;20059;-58
2021/11/12 09:52:26;;;;;;;165.73;49.20;;;;;;;1.76;100.00;96943.41;4973800;28;20943;-56
2021/11/12 09:54:52;;;;;;;160.95;49.47;;;;;;;1.91;100.00;96950.38;4981277;28;20137;-58
2021/11/12 09:57:20;;;;;;;179.48;48.28;;;;;;;1.90;100.00;96954.97;4974377;28;20121;-58
2021/11/12 09:59:56;;;;;;;174.82;49.65;;;;;;;1.96;100.00;96938.66;4979503;28;20046;-61
2021/11/12 10:02:21;;;;;;;195.80;48.60;;;;;;;1.86;100.00;96943.19;4972175;28;20133;-60
2021/11/12 10:04:47;;;;;;;191.77;52.83;;;;;;;2.10;100.00;96929.41;4980924;28;20089;-59
2021/11/12 10:07:15;;;;;;;150.10;47.65;;;;;;;2.36;100.00;96931.50;4974861;28;20088;-60
2021/11/12 10:09:44;;;;;;;195.30;52.78;;;;;;;2.29;100.00;96925.75;4971780;28;20046;-58
2021/11/12 10:12:11;;;;;;;180.45;51.83;;;;;;;2.12;100.00;96917.50;4975117;28;20039;-61
2021/11/12 10:17:07;;;;;;;183.88;49.83;;;;;;;2.25;100.00;96912.03;4969953;28;20039;-59
2021/11/12 10:19:45;;;;;;;188.27;58.05;;;;;;;2.13;100.00;96905.59;4978328;28;20046;-59
2021/11/12 10:22:10;;;;;;;163.63;47.78;;;;;;;2.24;100.00;96905.03;4972989;28;20112;-58
2021/11/12 10:24:40;;;;;;;135.45;46.10;;;;;;;2.66;100.00;96893.97;4979560;28;20046;-59
2021/11/12 10:27:08;;;;;;;;;;;;;;;2.90;100.00;96899.06;4976453;28;20048;-61
2021/11/12 10:29:44;;;;;;;124.10;45.08;;;;;;;3.13;100.00;96888.13;4978139;28;19922;-58
2021/11/12 10:32:12;;;;;;;130.60;46.22;;;;;;;3.15;100.00;96888.63;4975385;28;20365;-59
2021/11/12 10:34:41;;;;;;;119.90;42.42;;;;;;;3.52;100.00;96890.00;4979664;28;20053;-58
2021/11/12 10:37:24;;;;;;;129.45;44.50;;;;;;;3.53;100.00;96883.47;4971145;28;20049;-58
2021/11/12 10:39:57;;;;;;;101.55;39.08;;;;;;;3.27;100.00;96885.31;4982557;28;20039;-60
2021/11/12 10:42:25;;;;;;;109.28;37.35;;;;;;;3.31;100.00;96886.28;4976249;28;20057;-60
2021/11/12 10:44:56;;;;;;;104.78;39.88;;;;;;;3.23;100.00;96879.75;4983415;28;20046;-60
2021/11/12 10:47:23;;;;;;;116.88;37.35;;;;;;;3.56;100.00;96879.31;4979143;28;20057;-59
2021/11/12 10:49:56;;;;;;;111.78;34.78;;;;;;;3.45;100.00;96879.63;4984243;28;20046;-61
2021/11/12 10:52:24;;;;;;;107.93;34.58;;;;;;;3.27;100.00;96875.28;4978661;28;20557;-58
2021/11/12 10:55:12;;;;;;;78.10;31.63;;;;;;;3.72;100.00;96883.16;4982665;28;20153;-59
2021/11/12 10:57:45;;;;;;;74.43;31.38;;;;;;;4.08;100.00;96865.81;4987293;28;20432;-59
2021/11/12 11:00:26;;;;;;;76.25;30.48;;;;;;;4.35;100.00;96872.00;4981709;28;20460;-59
2021/11/12 11:02:56;;;;;;;63.72;27.15;;;;;;;4.68;100.00;96868.72;4979726;28;20404;-60
2021/11/12 11:05:26;;;;;;;69.70;28.65;;;;;;;4.86;100.00;96867.56;4977385;28;20035;-56
2021/11/12 11:08:06;;;;;;;57.25;26.30;;;;;;;5.05;100.00;96869.06;4983038;28;20050;-59
2021/11/12 11:10:37;;;;;;;49.72;24.42;;;;;;;5.34;100.00;96869.06;4982835;28;20057;-59
2021/11/12 11:13:12;;;;;;;56.38;25.33;;;;;;;5.23;100.00;96865.16;4980317;28;20050;-62
2021/11/12 11:15:39;;;;;;;49.67;24.70;;;;;;;5.40;100.00;96860.72;4987050;28;20510;-59
2021/11/12 11:18:26;;;;;;;57.05;24.65;;;;;;;4.95;100.00;96854.75;4981677;28;20050;-60
2021/11/12 11:21:41;;;;;;;47.17;23.15;;;;;;;4.94;100.00;96852.34;4982971;28;20049;-58
2021/11/12 11:23:44;;;;;;;45.10;22.23;;;;;;;5.12;100.00;96850.34;4969548;28;20369;-59
2021/11/12 11:26:11;;;;;;;43.80;22.25;;;;;;;5.06;100.00;96847.03;4975802;28;20043;-60
2021/11/12 11:28:37;;;;;;;50.72;22.35;;;;;;;4.97;100.00;96844.34;4983641;28;20508;-58
2021/11/12 11:31:06;;;;;;;46.08;22.25;;;;;;;4.95;100.00;96837.63;4982100;28;20130;-60
2021/11/12 11:33:32;;;;;;;47.55;21.40;;;;;;;5.04;100.00;96834.88;4983328;28;20045;-58
2021/11/12 11:36:01;;;;;;;43.22;22.40;;;;;;;5.14;100.00;96846.19;4980739;28;20050;-61
2021/11/12 11:38:29;;;;;;;38.20;19.90;;;;;;;5.16;100.00;96848.56;4974765;28;20446;-60
2021/11/12 11:40:56;;;;;;;44.17;21.08;;;;;;;5.06;100.00;96838.06;4974585;28;20057;-60
2021/11/12 11:43:24;;;;;;;36.78;19.90;;;;;;;5.23;100.00;96837.19;4979712;28;20046;-57
2021/11/12 11:45:51;;;;;;;45.45;21.05;;;;;;;5.25;100.00;96846.59;4983193;28;20073;-62
2021/11/12 11:48:18;;;;;;;41.22;21.05;;;;;;;5.34;100.00;96825.63;4978494;28;20038;-59
2021/11/12 11:51:07;;;;;;;41.63;20.98;;;;;;;5.47;100.00;96821.06;4985168;28;20081;-59
2021/11/12 11:53:48;;;;;;;45.33;21.50;;;;;;;5.31;100.00;96823.56;4943947;28;20058;-61
2021/11/12 11:56:26;;;;;;;51.58;22.58;;;;;;;5.33;100.00;96829.47;4977405;28;20042;-61
2021/11/12 11:59:15;;;;;;;49.47;22.70;;;;;;;5.35;100.00;96812.84;4981622;28;20057;-61
2021/11/12 12:01:50;;;;;;;43.03;22.83;;;;;;;5.37;100.00;96810.59;4981459;28;20042;-60
2021/11/12 12:04:15;;;;;;;42.92;21.60;;;;;;;5.07;100.00;96812.53;4976956;28;20038;-61
2021/11/12 12:07:03;;;;;;;44.55;22.35;;;;;;;5.11;100.00;96808.84;4982082;28;20045;-60
2021/11/12 12:09:37;;;;;;;50.22;23.20;;;;;;;5.25;100.00;96813.22;4976294;28;20046;-61
2021/11/12 12:12:03;;;;;;;47.75;24.38;;;;;;;5.11;100.00;96803.41;4980564;28;20046;-61
2021/11/12 12:14:32;;;;;;;45.13;21.27;;;;;;;5.37;100.00;96797.00;4978844;28;20514;-60
2021/11/12 12:17:25;;;;;;;45.10;20.40;;;;;;;5.48;100.00;96808.28;4982108;28;20177;-60
2021/11/12 12:20:06;;;;;;;49.05;20.95;;;;;;;5.27;100.00;96803.59;4983927;28;20038;-60
2021/11/12 12:31:27;;;;;;;55.13;23.00;;;;;;;4.66;100.00;96811.28;4981840;28;20121;-60
2021/11/12 12:34:18;;;;;;;51.22;24.30;;;;;;;4.42;100.00;96809.13;4992357;28;20046;-63
2021/11/12 13:25:26;;;;;;;69.05;30.65;;;;;;;4.86;100.00;96759.00;4976810;28;20055;-61
2021/11/12 13:28:18;;;;;;;69.80;31.35;;;;;;;4.44;100.00;96750.72;4966567;28;20053;-61
2021/11/12 13:30:45;;;;;;;68.85;29.95;;;;;;;4.59;100.00;96752.91;4978712;28;20476;-58
2021/11/12 13:33:43;;;;;;;65.80;28.92;;;;;;;4.79;100.00;96747.88;4958703;28;20047;-60
2021/11/12 13:36:31;;;;;;;62.33;26.95;;;;;;;5.01;100.00;96763.06;4972640;28;20046;-61
2021/11/12 13:39:06;;;;;;;54.92;27.70;;;;;;;4.90;100.00;96757.22;4961911;28;20138;-58
2021/11/12 13:41:41;;;;;;;62.33;30.45;;;;;;;4.76;100.00;96762.88;4975750;28;20046;-61
2021/11/12 13:44:09;;;;;;;80.95;35.17;;;;;;;5.00;100.00;96766.09;4955786;28;20162;-58
2021/11/12 13:46:48;;;;;;;95.63;37.70;;;;;;;4.97;100.00;96756.72;4961531;28;20654;-60
2021/11/12 13:49:26;;;;;;;88.23;39.13;;;;;;;5.01;100.00;96752.19;4939344;28;20496;-60
2021/11/12 13:51:52;;;;;;;108.35;43.25;;;;;;;5.09;100.00;96747.84;4962331;28;20644;-60
2021/11/12 13:54:17;;;;;;;113.10;45.67;;;;;;;5.00;100.00;96741.66;4955107;28;20035;-56
2021/11/12 13:56:43;;;;;;;95.88;40.60;;;;;;;5.11;100.00;96745.59;4977015;28;20085;-58
2021/11/12 13:59:11;;;;;;;91.75;37.78;;;;;;;4.81;100.00;96742.09;4956640;28;20050;-60
2021/11/12 14:01:37;;;;;;;90.78;39.08;;;;;;;4.79;100.00;96732.38;4964235;28;20081;-60
2021/11/12 14:04:03;;;;;;;91.43;36.75;;;;;;;4.96;100.00;96733.38;4963138;28;20078;-60
2021/11/12 14:06:36;;;;;;;105.85;39.83;;;;;;;4.79;100.00;96739.72;4962557;28;20047;-59
2021/11/12 14:09:04;;;;;;;90.22;40.20;;;;;;;4.77;100.00;96734.63;4965693;28;20433;-60
2021/11/12 14:11:32;;;;;;;102.70;44.78;;;;;;;4.76;100.00;96733.03;4966128;28;20050;-59
2021/11/12 14:14:03;;;;;;;111.95;44.42;;;;;;;4.84;100.00;96739.50;4984303;28;20049;-59
2021/11/12 14:19:47;;;;;;;118.85;44.70;;;;;;;4.78;100.00;96733.47;4982038;28;20124;-61
2021/11/12 14:22:28;;;;;;;132.82;46.17;;;;;;;4.65;100.00;96731.81;4978538;28;20046;-62
2021/11/12 14:25:09;;;;;;;125.72;48.47;;;;;;;4.50;100.00;96724.22;4984076;28;20047;-59
2021/11/12 14:27:43;;;;;;;122.38;47.60;;;;;;;4.22;100.00;96721.94;4983495;28;20081;-60
2021/11/12 14:46:30;;;;;;;111.00;43.83;;;;;;;4.74;100.00;96732.56;4959604;28;20154;-57
2021/11/12 14:52:00;;;;;;;100.30;40.20;;;;;;;4.67;100.00;96726.06;4982212;28;20483;-57
2021/11/12 14:54:29;;;;;;;97.18;36.63;;;;;;;4.69;100.00;96721.09;4979836;28;20924;-59
2021/11/12 14:56:55;;;;;;;83.53;34.25;;;;;;;4.73;100.00;96720.09;4984553;28;20046;-58
2021/11/12 14:59:22;;;;;;;83.30;34.33;;;;;;;4.64;100.00;96724.00;4979788;28;20050;-59
2021/11/12 15:01:47;;;;;;;84.20;35.38;;;;;;;4.54;100.00;96728.66;4984636;28;20102;-60
2021/11/12 15:04:13;;;;;;;81.18;34.47;;;;;;;4.48;100.00;96719.09;4977473;28;20583;-59
2021/11/12 15:06:38;;;;;;;76.00;32.72;;;;;;;4.57;100.00;96716.34;4981699;28;20050;-60
2021/11/12 15:09:17;;;;;;;68.65;31.33;;;;;;;4.60;100.00;96719.22;4979166;28;20134;-61
2021/11/12 15:11:46;;;;;;;73.03;31.67;;;;;;;4.58;100.00;96710.63;4983715;28;20137;-59
2021/11/12 15:14:15;;;;;;;72.60;31.50;;;;;;;4.64;100.00;96708.50;4976125;28;20046;-60
2021/11/12 15:16:41;;;;;;;109.25;33.95;;;;;;;4.18;100.00;96697.41;4985704;28;20137;-60
2021/11/12 15:19:11;;;;;;;83.32;34.72;;;;;;;4.08;100.00;96710.50;4994520;28;20494;-62
2021/11/12 15:21:50;;;;;;;92.15;34.28;;;;;;;4.02;100.00;96705.25;4982097;28;20152;-59
2021/11/12 15:24:29;;;;;;;93.43;35.35;;;;;;;4.02;100.00;96707.97;4979799;28;20174;-59
2021/11/12 15:32:07;;;;;;;95.85;37.95;;;;;;;4.34;100.00;96703.09;4983285;28;20365;-58
2021/11/12 15:34:41;;;;;;;121.10;41.70;;;;;;;4.17;100.00;96698.50;4982752;28;20625;-60
2021/11/12 15:37:15;;;;;;;94.43;35.17;;;;;;;4.24;100.00;96699.94;4992394;28;20042;-60
2021/11/12 15:45:10;;;;;;;99.80;34.95;;;;;;;4.11;100.00;96701.75;4942656;28;20142;-61
2021/11/12 15:47:43;;;;;;;;;;;;;;;4.38;100.00;96697.81;4976077;28;20049;-58
2021/11/12 16:03:25;;;;;;;110.78;39.33;;;;;;;3.92;100.00;96708.31;4981923;28;20046;-58
2021/11/12 16:14:00;;;;;;;164.43;44.20;;;;;;;3.68;100.00;96705.34;4989147;28;20049;-60
2021/11/12 16:19:13;;;;;;;128.93;40.08;;;;;;;3.74;100.00;96710.25;4980305;28;20322;-61
2021/11/12 16:27:07;;;;;;;172.00;47.25;;;;;;;3.59;100.00;96718.91;4977900;28;20467;-60
2021/11/12 16:29:45;;;;;;;190.40;48.63;;;;;;;3.53;100.00;96728.28;4981910;28;20078;-58
2021/11/12 16:32:21;;;;;;;159.70;46.85;;;;;;;3.59;100.00;96719.69;4974916;28;20085;-58
2021/11/12 16:34:49;;;;;;;177.50;48.83;;;;;;;3.54;100.00;96730.69;4964638;28;20046;-60
2021/11/12 16:37:18;;;;;;;134.52;45.72;;;;;;;3.59;100.00;96735.94;4974520;28;20097;-57
2021/11/12 16:45:10;;;;;;;154.45;48.83;;;;;;;3.59;100.00;96746.00;4982073;28;20054;-58
2021/11/12 16:47:47;;;;;;;164.65;50.58;;;;;;;3.55;100.00;96737.72;4981578;28;20396;-60
2021/11/12 16:50:25;;;;;;;142.02;46.67;;;;;;;3.72;100.00;96749.63;4977211;28;20045;-57
2021/11/12 16:53:01;;;;;;;136.63;47.35;;;;;;;3.99;100.00;96756.59;4981955;28;20081;-57
2021/11/12 17:01:29;;;;;;;130.40;49.60;;;;;;;4.22;100.00;96757.19;4977429;28;20042;-60
2021/11/12 17:03:31;;;;;;;125.30;44.65;;;;;;;4.31;100.00;96766.09;4973116;28;20042;-59